sensor_id;sensor_type;location;lat;lon;timestamp;P1;durP1;ratioP1;P2;durP2;ratioP2
51184;SDS011;37248;59.350;18.050;2022-10-31T00:02:01;18.73;;;9.57;;
51184;SDS011;37248;59.350;18.050;2022-10-31T00:04:26;17.13;;;8.47;;
51184;SDS011;37248;59.350;18.050;2022-10-31T00:06:51;15.33;;;8.27;;
51184;SDS011;37248;59.350;18.050;2022-10-31T00:09:17;16.80;;;8.27;;
51184;SDS011;37248;59.350;18.050;2022-10-31T00:11:42;19.17;;;8.53;;
51184;SDS011;37248;59.350;18.050;2022-10-31T00:14:07;20.10;;;8.60;;
51184;SDS011;37248;59.350;18.050;2022-10-31T00:16:32;17.37;;;8.07;;
51184;SDS011;37248;59.350;18.050;2022-10-31T00:18:59;15.13;;;7.47;;
51184;SDS011;37248;59.350;18.050;2022-10-31T00:21:25;17.20;;;8.43;;
51184;SDS011;37248;59.350;18.050;2022-10-31T00:23:50;16.95;;;7.97;;
51184;SDS011;37248;59.350;18.050;2022-10-31T00:26:15;14.97;;;8.27;;
51184;SDS011;37248;59.350;18.050;2022-10-31T00:28:41;15.60;;;7.57;;
51184;SDS011;37248;59.350;18.050;2022-10-31T00:31:07;13.60;;;7.70;;
51184;SDS011;37248;59.350;18.050;2022-10-31T00:33:33;16.05;;;7.40;;
51184;SDS011;37248;59.350;18.050;2022-10-31T00:35:58;15.13;;;7.70;;
51184;SDS011;37248;59.350;18.050;2022-10-31T00:38:24;12.47;;;7.10;;
51184;SDS011;37248;59.350;18.050;2022-10-31T00:40:49;14.05;;;7.00;;
51184;SDS011;37248;59.350;18.050;2022-10-31T00:43:14;11.87;;;7.27;;
51184;SDS011;37248;59.350;18.050;2022-10-31T00:45:40;14.17;;;6.73;;
51184;SDS011;37248;59.350;18.050;2022-10-31T00:48:06;14.27;;;6.90;;
51184;SDS011;37248;59.350;18.050;2022-10-31T00:50:31;12.27;;;7.20;;
51184;SDS011;37248;59.350;18.050;2022-10-31T00:52:56;13.30;;;6.47;;
51184;SDS011;37248;59.350;18.050;2022-10-31T00:55:23;14.00;;;6.95;;
51184;SDS011;37248;59.350;18.050;2022-10-31T00:57:48;17.77;;;6.07;;
51184;SDS011;37248;59.350;18.050;2022-10-31T01:00:13;14.83;;;6.50;;
51184;SDS011;37248;59.350;18.050;2022-10-31T01:02:39;15.95;;;6.60;;
51184;SDS011;37248;59.350;18.050;2022-10-31T01:05:04;13.20;;;6.53;;
51184;SDS011;37248;59.350;18.050;2022-10-31T01:07:30;12.70;;;5.90;;
51184;SDS011;37248;59.350;18.050;2022-10-31T01:09:55;11.70;;;6.10;;
51184;SDS011;37248;59.350;18.050;2022-10-31T01:12:20;12.68;;;6.05;;
51184;SDS011;37248;59.350;18.050;2022-10-31T01:14:45;14.87;;;6.47;;
51184;SDS011;37248;59.350;18.050;2022-10-31T01:17:11;11.23;;;5.83;;
51184;SDS011;37248;59.350;18.050;2022-10-31T01:19:37;11.70;;;5.70;;
51184;SDS011;37248;59.350;18.050;2022-10-31T01:22:02;12.57;;;5.47;;
51184;SDS011;37248;59.350;18.050;2022-10-31T01:24:27;12.30;;;6.27;;
51184;SDS011;37248;59.350;18.050;2022-10-31T01:26:52;10.03;;;5.73;;
51184;SDS011;37248;59.350;18.050;2022-10-31T01:29:18;9.53;;;5.57;;
51184;SDS011;37248;59.350;18.050;2022-10-31T01:31:43;9.37;;;5.43;;
51184;SDS011;37248;59.350;18.050;2022-10-31T01:34:10;12.70;;;5.80;;
51184;SDS011;37248;59.350;18.050;2022-10-31T01:36:37;11.18;;;5.25;;
51184;SDS011;37248;59.350;18.050;2022-10-31T01:39:13;8.83;;;4.90;;
51184;SDS011;37248;59.350;18.050;2022-10-31T01:41:41;10.40;;;5.23;;
51184;SDS011;37248;59.350;18.050;2022-10-31T01:46:41;10.30;;;5.10;;
51184;SDS011;37248;59.350;18.050;2022-10-31T01:49:09;10.57;;;5.38;;
51184;SDS011;37248;59.350;18.050;2022-10-31T01:51:38;10.95;;;4.95;;
51184;SDS011;37248;59.350;18.050;2022-10-31T01:54:06;9.35;;;5.13;;
51184;SDS011;37248;59.350;18.050;2022-10-31T01:56:32;10.48;;;4.70;;
51184;SDS011;37248;59.350;18.050;2022-10-31T01:58:59;8.88;;;4.30;;
51184;SDS011;37248;59.350;18.050;2022-10-31T02:01:25;8.57;;;4.65;;
51184;SDS011;37248;59.350;18.050;2022-10-31T02:03:50;8.27;;;4.63;;
51184;SDS011;37248;59.350;18.050;2022-10-31T02:06:22;9.38;;;4.30;;
51184;SDS011;37248;59.350;18.050;2022-10-31T02:08:51;12.95;;;5.15;;
51184;SDS011;37248;59.350;18.050;2022-10-31T02:11:16;9.27;;;4.33;;
51184;SDS011;37248;59.350;18.050;2022-10-31T02:13:41;8.07;;;4.10;;
51184;SDS011;37248;59.350;18.050;2022-10-31T02:16:08;7.73;;;4.03;;
51184;SDS011;37248;59.350;18.050;2022-10-31T02:18:34;7.55;;;4.50;;
51184;SDS011;37248;59.350;18.050;2022-10-31T02:39:12;7.28;;;3.95;;
51184;SDS011;37248;59.350;18.050;2022-10-31T02:41:52;8.60;;;3.85;;
51184;SDS011;37248;59.350;18.050;2022-10-31T02:44:33;7.32;;;3.72;;
51184;SDS011;37248;59.350;18.050;2022-10-31T02:47:00;9.90;;;3.40;;
51184;SDS011;37248;59.350;18.050;2022-10-31T02:51:58;7.83;;;3.50;;
51184;SDS011;37248;59.350;18.050;2022-10-31T02:54:25;9.10;;;3.60;;
51184;SDS011;37248;59.350;18.050;2022-10-31T02:56:52;7.87;;;3.40;;
51184;SDS011;37248;59.350;18.050;2022-10-31T02:59:18;7.68;;;3.63;;
51184;SDS011;37248;59.350;18.050;2022-10-31T03:07:37;7.60;;;3.05;;
51184;SDS011;37248;59.350;18.050;2022-10-31T03:09:55;6.25;;;2.90;;
51184;SDS011;37248;59.350;18.050;2022-10-31T03:12:28;5.93;;;3.43;;
51184;SDS011;37248;59.350;18.050;2022-10-31T03:17:33;7.57;;;3.10;;
51184;SDS011;37248;59.350;18.050;2022-10-31T03:20:00;8.50;;;3.13;;
51184;SDS011;37248;59.350;18.050;2022-10-31T03:22:28;6.00;;;3.17;;
51184;SDS011;37248;59.350;18.050;2022-10-31T03:24:54;7.30;;;3.30;;
51184;SDS011;37248;59.350;18.050;2022-10-31T03:27:24;6.32;;;3.10;;
51184;SDS011;37248;59.350;18.050;2022-10-31T03:29:50;6.03;;;2.72;;
51184;SDS011;37248;59.350;18.050;2022-10-31T03:32:19;5.23;;;3.13;;
51184;SDS011;37248;59.350;18.050;2022-10-31T03:34:45;9.73;;;3.10;;
51184;SDS011;37248;59.350;18.050;2022-10-31T03:37:11;7.93;;;3.07;;
51184;SDS011;37248;59.350;18.050;2022-10-31T03:39:38;6.32;;;3.30;;
51184;SDS011;37248;59.350;18.050;2022-10-31T03:42:07;9.70;;;2.92;;
51184;SDS011;37248;59.350;18.050;2022-10-31T03:44:33;5.50;;;2.72;;
51184;SDS011;37248;59.350;18.050;2022-10-31T03:46:59;10.45;;;3.22;;
51184;SDS011;37248;59.350;18.050;2022-10-31T03:49:26;7.95;;;3.00;;
51184;SDS011;37248;59.350;18.050;2022-10-31T03:51:55;6.28;;;2.85;;
51184;SDS011;37248;59.350;18.050;2022-10-31T03:54:36;6.68;;;2.58;;
51184;SDS011;37248;59.350;18.050;2022-10-31T03:59:35;5.35;;;2.65;;
51184;SDS011;37248;59.350;18.050;2022-10-31T04:02:07;4.57;;;2.50;;
51184;SDS011;37248;59.350;18.050;2022-10-31T04:04:35;5.82;;;2.60;;
51184;SDS011;37248;59.350;18.050;2022-10-31T04:07:01;18.95;;;3.15;;
51184;SDS011;37248;59.350;18.050;2022-10-31T04:09:27;8.95;;;2.55;;
51184;SDS011;37248;59.350;18.050;2022-10-31T04:11:55;5.70;;;2.70;;
51184;SDS011;37248;59.350;18.050;2022-10-31T04:14:21;4.38;;;2.33;;
51184;SDS011;37248;59.350;18.050;2022-10-31T04:16:49;8.32;;;2.55;;
51184;SDS011;37248;59.350;18.050;2022-10-31T04:19:14;14.93;;;2.20;;
51184;SDS011;37248;59.350;18.050;2022-10-31T04:21:39;4.33;;;2.20;;
51184;SDS011;37248;59.350;18.050;2022-10-31T04:24:08;7.53;;;2.60;;
51184;SDS011;37248;59.350;18.050;2022-10-31T04:26:33;5.20;;;2.40;;
51184;SDS011;37248;59.350;18.050;2022-10-31T04:28:58;5.97;;;2.20;;
51184;SDS011;37248;59.350;18.050;2022-10-31T04:31:23;4.37;;;2.00;;
51184;SDS011;37248;59.350;18.050;2022-10-31T04:33:49;4.70;;;2.23;;
51184;SDS011;37248;59.350;18.050;2022-10-31T04:36:14;6.93;;;2.17;;
51184;SDS011;37248;59.350;18.050;2022-10-31T04:38:39;4.20;;;1.93;;
51184;SDS011;37248;59.350;18.050;2022-10-31T04:41:04;6.28;;;2.25;;
51184;SDS011;37248;59.350;18.050;2022-10-31T04:43:30;7.55;;;2.35;;
51184;SDS011;37248;59.350;18.050;2022-10-31T04:45:55;6.03;;;2.17;;
51184;SDS011;37248;59.350;18.050;2022-10-31T04:48:21;5.33;;;1.80;;
51184;SDS011;37248;59.350;18.050;2022-10-31T04:50:46;3.60;;;1.80;;
51184;SDS011;37248;59.350;18.050;2022-10-31T04:53:12;7.60;;;1.97;;
51184;SDS011;37248;59.350;18.050;2022-10-31T04:55:37;7.00;;;2.23;;
51184;SDS011;37248;59.350;18.050;2022-10-31T04:58:03;7.00;;;2.30;;
51184;SDS011;37248;59.350;18.050;2022-10-31T05:00:28;4.10;;;1.90;;
51184;SDS011;37248;59.350;18.050;2022-10-31T05:02:54;5.73;;;2.10;;
51184;SDS011;37248;59.350;18.050;2022-10-31T05:05:21;4.93;;;1.80;;
51184;SDS011;37248;59.350;18.050;2022-10-31T05:07:47;8.00;;;2.17;;
51184;SDS011;37248;59.350;18.050;2022-10-31T05:10:14;5.07;;;1.52;;
51184;SDS011;37248;59.350;18.050;2022-10-31T05:12:58;5.50;;;2.10;;
51184;SDS011;37248;59.350;18.050;2022-10-31T05:15:24;7.68;;;2.45;;
51184;SDS011;37248;59.350;18.050;2022-10-31T05:17:50;4.75;;;2.05;;
51184;SDS011;37248;59.350;18.050;2022-10-31T05:20:16;26.20;;;2.30;;
51184;SDS011;37248;59.350;18.050;2022-10-31T05:22:42;8.63;;;2.55;;
51184;SDS011;37248;59.350;18.050;2022-10-31T05:25:08;4.32;;;1.65;;
51184;SDS011;37248;59.350;18.050;2022-10-31T05:27:33;6.87;;;2.40;;
51184;SDS011;37248;59.350;18.050;2022-10-31T05:29:59;4.83;;;1.83;;
51184;SDS011;37248;59.350;18.050;2022-10-31T05:32:24;5.47;;;1.90;;
51184;SDS011;37248;59.350;18.050;2022-10-31T05:34:49;7.87;;;2.43;;
51184;SDS011;37248;59.350;18.050;2022-10-31T05:37:14;7.50;;;2.10;;
51184;SDS011;37248;59.350;18.050;2022-10-31T05:39:39;6.30;;;1.93;;
51184;SDS011;37248;59.350;18.050;2022-10-31T05:42:05;12.27;;;2.67;;
51184;SDS011;37248;59.350;18.050;2022-10-31T05:44:30;7.60;;;2.00;;
51184;SDS011;37248;59.350;18.050;2022-10-31T05:46:55;7.87;;;2.00;;
51184;SDS011;37248;59.350;18.050;2022-10-31T05:49:20;5.07;;;1.97;;
51184;SDS011;37248;59.350;18.050;2022-10-31T05:51:46;3.37;;;1.60;;
51184;SDS011;37248;59.350;18.050;2022-10-31T05:54:11;4.70;;;2.20;;
51184;SDS011;37248;59.350;18.050;2022-10-31T05:56:36;4.43;;;1.70;;
51184;SDS011;37248;59.350;18.050;2022-10-31T05:59:01;5.60;;;2.00;;
51184;SDS011;37248;59.350;18.050;2022-10-31T06:01:26;4.77;;;1.70;;
51184;SDS011;37248;59.350;18.050;2022-10-31T06:03:52;6.53;;;2.00;;
51184;SDS011;37248;59.350;18.050;2022-10-31T06:06:17;5.17;;;1.60;;
51184;SDS011;37248;59.350;18.050;2022-10-31T06:08:42;5.37;;;1.80;;
51184;SDS011;37248;59.350;18.050;2022-10-31T06:11:07;4.30;;;1.97;;
51184;SDS011;37248;59.350;18.050;2022-10-31T06:13:33;6.97;;;1.50;;
51184;SDS011;37248;59.350;18.050;2022-10-31T06:15:58;5.37;;;1.83;;
51184;SDS011;37248;59.350;18.050;2022-10-31T06:18:23;5.33;;;1.43;;
51184;SDS011;37248;59.350;18.050;2022-10-31T06:20:48;7.80;;;1.90;;
51184;SDS011;37248;59.350;18.050;2022-10-31T06:23:13;7.63;;;1.80;;
51184;SDS011;37248;59.350;18.050;2022-10-31T06:25:39;8.83;;;2.17;;
51184;SDS011;37248;59.350;18.050;2022-10-31T06:28:04;11.83;;;2.17;;
51184;SDS011;37248;59.350;18.050;2022-10-31T06:30:30;8.00;;;1.90;;
51184;SDS011;37248;59.350;18.050;2022-10-31T06:33:00;4.63;;;1.70;;
51184;SDS011;37248;59.350;18.050;2022-10-31T06:35:26;4.32;;;1.52;;
51184;SDS011;37248;59.350;18.050;2022-10-31T06:37:54;11.30;;;2.07;;
51184;SDS011;37248;59.350;18.050;2022-10-31T06:40:19;7.50;;;1.73;;
51184;SDS011;37248;59.350;18.050;2022-10-31T06:42:44;5.90;;;1.95;;
51184;SDS011;37248;59.350;18.050;2022-10-31T06:45:10;8.67;;;1.93;;
51184;SDS011;37248;59.350;18.050;2022-10-31T06:47:35;7.00;;;1.80;;
51184;SDS011;37248;59.350;18.050;2022-10-31T06:50:00;12.43;;;1.93;;
51184;SDS011;37248;59.350;18.050;2022-10-31T06:52:25;12.20;;;1.90;;
51184;SDS011;37248;59.350;18.050;2022-10-31T06:54:51;7.27;;;1.60;;
51184;SDS011;37248;59.350;18.050;2022-10-31T06:57:16;8.57;;;1.77;;
51184;SDS011;37248;59.350;18.050;2022-10-31T06:59:41;10.67;;;2.23;;
51184;SDS011;37248;59.350;18.050;2022-10-31T07:02:08;6.50;;;1.60;;
51184;SDS011;37248;59.350;18.050;2022-10-31T07:04:33;12.27;;;2.08;;
51184;SDS011;37248;59.350;18.050;2022-10-31T07:06:58;7.50;;;1.87;;
51184;SDS011;37248;59.350;18.050;2022-10-31T07:09:24;17.77;;;2.10;;
51184;SDS011;37248;59.350;18.050;2022-10-31T07:11:51;11.10;;;1.77;;
51184;SDS011;37248;59.350;18.050;2022-10-31T07:14:16;13.00;;;2.03;;
51184;SDS011;37248;59.350;18.050;2022-10-31T07:16:41;11.65;;;1.50;;
51184;SDS011;37248;59.350;18.050;2022-10-31T07:19:07;5.63;;;1.50;;
51184;SDS011;37248;59.350;18.050;2022-10-31T07:21:32;10.18;;;1.92;;
51184;SDS011;37248;59.350;18.050;2022-10-31T07:23:57;7.87;;;1.60;;
51184;SDS011;37248;59.350;18.050;2022-10-31T07:26:22;7.60;;;1.77;;
51184;SDS011;37248;59.350;18.050;2022-10-31T07:28:48;8.80;;;1.50;;
51184;SDS011;37248;59.350;18.050;2022-10-31T07:31:13;7.87;;;1.37;;
51184;SDS011;37248;59.350;18.050;2022-10-31T07:33:38;6.20;;;1.67;;
51184;SDS011;37248;59.350;18.050;2022-10-31T07:36:04;5.57;;;1.60;;
51184;SDS011;37248;59.350;18.050;2022-10-31T07:38:29;5.80;;;1.80;;
51184;SDS011;37248;59.350;18.050;2022-10-31T07:40:54;8.80;;;1.60;;
51184;SDS011;37248;59.350;18.050;2022-10-31T07:43:19;7.65;;;1.40;;
51184;SDS011;37248;59.350;18.050;2022-10-31T07:45:48;7.50;;;2.00;;
51184;SDS011;37248;59.350;18.050;2022-10-31T07:48:14;5.40;;;1.45;;
51184;SDS011;37248;59.350;18.050;2022-10-31T07:50:39;7.93;;;1.30;;
51184;SDS011;37248;59.350;18.050;2022-10-31T07:53:08;6.47;;;1.60;;
51184;SDS011;37248;59.350;18.050;2022-10-31T07:55:34;8.73;;;1.42;;
51184;SDS011;37248;59.350;18.050;2022-10-31T07:58:00;19.73;;;1.80;;
51184;SDS011;37248;59.350;18.050;2022-10-31T08:00:25;7.60;;;1.65;;
51184;SDS011;37248;59.350;18.050;2022-10-31T08:03:13;6.33;;;1.73;;
51184;SDS011;37248;59.350;18.050;2022-10-31T08:05:36;7.43;;;1.52;;
51184;SDS011;37248;59.350;18.050;2022-10-31T08:08:03;11.97;;;1.83;;
51184;SDS011;37248;59.350;18.050;2022-10-31T08:10:28;14.25;;;1.80;;
51184;SDS011;37248;59.350;18.050;2022-10-31T08:12:57;7.37;;;2.00;;
51184;SDS011;37248;59.350;18.050;2022-10-31T08:15:23;9.82;;;2.40;;
51184;SDS011;37248;59.350;18.050;2022-10-31T08:17:48;9.20;;;2.20;;
51184;SDS011;37248;59.350;18.050;2022-10-31T08:20:14;5.05;;;1.40;;
51184;SDS011;37248;59.350;18.050;2022-10-31T08:22:39;8.80;;;1.60;;
51184;SDS011;37248;59.350;18.050;2022-10-31T08:25:04;9.53;;;2.10;;
51184;SDS011;37248;59.350;18.050;2022-10-31T08:27:30;10.30;;;1.75;;
51184;SDS011;37248;59.350;18.050;2022-10-31T08:29:55;7.03;;;1.70;;
51184;SDS011;37248;59.350;18.050;2022-10-31T08:32:20;7.75;;;1.52;;
51184;SDS011;37248;59.350;18.050;2022-10-31T08:34:46;8.57;;;1.57;;
51184;SDS011;37248;59.350;18.050;2022-10-31T08:37:11;7.20;;;1.60;;
51184;SDS011;37248;59.350;18.050;2022-10-31T08:39:36;7.73;;;1.90;;
51184;SDS011;37248;59.350;18.050;2022-10-31T08:42:01;7.23;;;1.83;;
51184;SDS011;37248;59.350;18.050;2022-10-31T08:44:27;15.67;;;2.00;;
51184;SDS011;37248;59.350;18.050;2022-10-31T08:46:52;19.20;;;2.90;;
51184;SDS011;37248;59.350;18.050;2022-10-31T08:49:18;14.00;;;1.77;;
51184;SDS011;37248;59.350;18.050;2022-10-31T08:51:43;9.83;;;1.77;;
51184;SDS011;37248;59.350;18.050;2022-10-31T08:54:08;12.30;;;1.57;;
51184;SDS011;37248;59.350;18.050;2022-10-31T08:56:33;6.20;;;1.70;;
51184;SDS011;37248;59.350;18.050;2022-10-31T08:58:59;14.43;;;2.13;;
51184;SDS011;37248;59.350;18.050;2022-10-31T09:01:24;9.63;;;1.67;;
51184;SDS011;37248;59.350;18.050;2022-10-31T09:03:49;7.10;;;1.60;;
51184;SDS011;37248;59.350;18.050;2022-10-31T09:06:14;11.60;;;1.90;;
51184;SDS011;37248;59.350;18.050;2022-10-31T09:08:40;16.03;;;2.40;;
51184;SDS011;37248;59.350;18.050;2022-10-31T09:11:05;9.90;;;2.17;;
51184;SDS011;37248;59.350;18.050;2022-10-31T09:13:31;7.00;;;1.88;;
51184;SDS011;37248;59.350;18.050;2022-10-31T09:15:56;6.20;;;2.27;;
51184;SDS011;37248;59.350;18.050;2022-10-31T09:18:25;12.03;;;2.07;;
51184;SDS011;37248;59.350;18.050;2022-10-31T09:20:53;7.75;;;1.63;;
51184;SDS011;37248;59.350;18.050;2022-10-31T09:23:19;6.85;;;1.77;;
51184;SDS011;37248;59.350;18.050;2022-10-31T09:25:45;7.97;;;1.83;;
51184;SDS011;37248;59.350;18.050;2022-10-31T09:28:11;7.22;;;2.00;;
51184;SDS011;37248;59.350;18.050;2022-10-31T09:30:37;9.30;;;1.83;;
51184;SDS011;37248;59.350;18.050;2022-10-31T09:33:04;9.60;;;1.90;;
51184;SDS011;37248;59.350;18.050;2022-10-31T09:35:29;4.57;;;1.57;;
51184;SDS011;37248;59.350;18.050;2022-10-31T09:37:58;29.67;;;3.60;;
51184;SDS011;37248;59.350;18.050;2022-10-31T09:40:25;41.75;;;5.43;;
51184;SDS011;37248;59.350;18.050;2022-10-31T09:42:54;34.10;;;5.20;;
51184;SDS011;37248;59.350;18.050;2022-10-31T09:45:23;36.58;;;4.10;;
51184;SDS011;37248;59.350;18.050;2022-10-31T09:50:25;21.15;;;3.20;;
51184;SDS011;37248;59.350;18.050;2022-10-31T09:53:12;21.17;;;3.17;;
51184;SDS011;37248;59.350;18.050;2022-10-31T09:55:41;27.45;;;3.17;;
51184;SDS011;37248;59.350;18.050;2022-10-31T09:58:15;24.08;;;2.40;;
51184;SDS011;37248;59.350;18.050;2022-10-31T10:00:40;15.88;;;2.35;;
51184;SDS011;37248;59.350;18.050;2022-10-31T10:05:46;21.10;;;2.70;;
51184;SDS011;37248;59.350;18.050;2022-10-31T10:08:18;17.38;;;2.30;;
51184;SDS011;37248;59.350;18.050;2022-10-31T10:10:51;12.07;;;2.50;;
51184;SDS011;37248;59.350;18.050;2022-10-31T10:21:13;11.77;;;2.43;;
51184;SDS011;37248;59.350;18.050;2022-10-31T10:26:13;9.80;;;1.97;;
51184;SDS011;37248;59.350;18.050;2022-10-31T10:28:41;8.98;;;2.28;;
51184;SDS011;37248;59.350;18.050;2022-10-31T10:33:37;10.47;;;2.30;;
51184;SDS011;37248;59.350;18.050;2022-10-31T10:36:04;8.63;;;1.95;;
51184;SDS011;37248;59.350;18.050;2022-10-31T10:41:23;8.43;;;3.03;;
51184;SDS011;37248;59.350;18.050;2022-10-31T10:43:49;12.43;;;3.80;;
51184;SDS011;37248;59.350;18.050;2022-10-31T10:46:37;11.55;;;3.53;;
51184;SDS011;37248;59.350;18.050;2022-10-31T10:59:45;9.70;;;4.17;;
51184;SDS011;37248;59.350;18.050;2022-10-31T11:02:17;7.28;;;3.80;;
51184;SDS011;37248;59.350;18.050;2022-10-31T11:04:43;8.20;;;4.55;;
51184;SDS011;37248;59.350;18.050;2022-10-31T11:07:10;7.82;;;4.32;;
51184;SDS011;37248;59.350;18.050;2022-10-31T11:09:36;10.45;;;4.78;;
51184;SDS011;37248;59.350;18.050;2022-10-31T11:12:16;13.02;;;4.85;;
51184;SDS011;37248;59.350;18.050;2022-10-31T11:14:47;9.82;;;4.45;;
51184;SDS011;37248;59.350;18.050;2022-10-31T11:17:30;10.52;;;4.63;;
51184;SDS011;37248;59.350;18.050;2022-10-31T11:20:00;9.40;;;4.82;;
51184;SDS011;37248;59.350;18.050;2022-10-31T11:22:25;10.32;;;4.80;;
51184;SDS011;37248;59.350;18.050;2022-10-31T11:24:51;10.35;;;4.70;;
51184;SDS011;37248;59.350;18.050;2022-10-31T11:27:21;13.45;;;4.97;;
51184;SDS011;37248;59.350;18.050;2022-10-31T11:29:46;9.15;;;4.70;;
51184;SDS011;37248;59.350;18.050;2022-10-31T11:32:16;10.63;;;4.67;;
51184;SDS011;37248;59.350;18.050;2022-10-31T11:34:43;8.23;;;4.50;;
51184;SDS011;37248;59.350;18.050;2022-10-31T11:37:18;9.88;;;4.70;;
51184;SDS011;37248;59.350;18.050;2022-10-31T11:39:45;8.57;;;4.55;;
51184;SDS011;37248;59.350;18.050;2022-10-31T11:42:18;10.07;;;4.82;;
51184;SDS011;37248;59.350;18.050;2022-10-31T11:44:44;9.32;;;4.53;;
51184;SDS011;37248;59.350;18.050;2022-10-31T11:47:12;9.18;;;4.43;;
51184;SDS011;37248;59.350;18.050;2022-10-31T11:49:39;7.80;;;4.45;;
51184;SDS011;37248;59.350;18.050;2022-10-31T11:52:06;10.50;;;4.47;;
51184;SDS011;37248;59.350;18.050;2022-10-31T11:54:34;19.90;;;5.43;;
51184;SDS011;37248;59.350;18.050;2022-10-31T11:57:01;15.45;;;4.43;;
51184;SDS011;37248;59.350;18.050;2022-10-31T11:59:28;18.98;;;4.70;;
51184;SDS011;37248;59.350;18.050;2022-10-31T12:01:55;8.70;;;4.15;;
51184;SDS011;37248;59.350;18.050;2022-10-31T12:04:23;24.58;;;5.40;;
51184;SDS011;37248;59.350;18.050;2022-10-31T12:06:50;14.73;;;4.53;;
51184;SDS011;37248;59.350;18.050;2022-10-31T12:09:22;11.10;;;4.70;;
51184;SDS011;37248;59.350;18.050;2022-10-31T12:24:28;16.77;;;5.15;;
51184;SDS011;37248;59.350;18.050;2022-10-31T12:32:08;12.97;;;4.50;;
51184;SDS011;37248;59.350;18.050;2022-10-31T12:52:31;17.08;;;4.65;;
51184;SDS011;37248;59.350;18.050;2022-10-31T12:55:02;18.40;;;4.03;;
51184;SDS011;37248;59.350;18.050;2022-10-31T12:57:42;12.52;;;3.70;;
51184;SDS011;37248;59.350;18.050;2022-10-31T13:00:15;10.13;;;4.43;;
51184;SDS011;37248;59.350;18.050;2022-10-31T13:02:48;9.00;;;4.00;;
51184;SDS011;37248;59.350;18.050;2022-10-31T13:05:22;9.80;;;3.88;;
51184;SDS011;37248;59.350;18.050;2022-10-31T13:12:40;13.37;;;4.47;;
51184;SDS011;37248;59.350;18.050;2022-10-31T13:15:23;9.80;;;3.97;;
51184;SDS011;37248;59.350;18.050;2022-10-31T13:18:03;11.65;;;4.45;;
51184;SDS011;37248;59.350;18.050;2022-10-31T13:20:31;8.32;;;3.80;;
51184;SDS011;37248;59.350;18.050;2022-10-31T13:23:42;10.60;;;4.32;;
51184;SDS011;37248;59.350;18.050;2022-10-31T13:25:44;7.85;;;3.97;;
51184;SDS011;37248;59.350;18.050;2022-10-31T13:28:23;6.75;;;3.15;;
51184;SDS011;37248;59.350;18.050;2022-10-31T13:30:51;7.40;;;3.35;;
51184;SDS011;37248;59.350;18.050;2022-10-31T13:33:21;8.57;;;3.33;;
51184;SDS011;37248;59.350;18.050;2022-10-31T13:35:51;9.00;;;3.38;;
51184;SDS011;37248;59.350;18.050;2022-10-31T13:40:53;11.70;;;4.03;;
51184;SDS011;37248;59.350;18.050;2022-10-31T13:45:52;12.90;;;4.10;;
51184;SDS011;37248;59.350;18.050;2022-10-31T13:50:55;8.80;;;3.70;;
51184;SDS011;37248;59.350;18.050;2022-10-31T13:53:22;10.75;;;3.90;;
51184;SDS011;37248;59.350;18.050;2022-10-31T13:56:01;10.97;;;4.87;;
51184;SDS011;37248;59.350;18.050;2022-10-31T13:58:30;8.65;;;4.75;;
51184;SDS011;37248;59.350;18.050;2022-10-31T14:00:59;9.45;;;5.22;;
51184;SDS011;37248;59.350;18.050;2022-10-31T14:03:27;8.57;;;5.10;;
51184;SDS011;37248;59.350;18.050;2022-10-31T14:05:53;7.60;;;5.20;;
51184;SDS011;37248;59.350;18.050;2022-10-31T14:08:20;8.07;;;4.53;;
51184;SDS011;37248;59.350;18.050;2022-10-31T14:10:48;7.87;;;5.03;;
51184;SDS011;37248;59.350;18.050;2022-10-31T14:13:15;11.70;;;5.40;;
51184;SDS011;37248;59.350;18.050;2022-10-31T14:15:51;11.25;;;5.50;;
51184;SDS011;37248;59.350;18.050;2022-10-31T14:18:39;8.97;;;5.37;;
51184;SDS011;37248;59.350;18.050;2022-10-31T14:23:47;6.93;;;4.82;;
51184;SDS011;37248;59.350;18.050;2022-10-31T14:28:57;7.05;;;4.85;;
51184;SDS011;37248;59.350;18.050;2022-10-31T14:34:00;8.93;;;5.30;;
51184;SDS011;37248;59.350;18.050;2022-10-31T14:36:37;9.10;;;4.65;;
51184;SDS011;37248;59.350;18.050;2022-10-31T14:52:08;11.30;;;4.60;;
51184;SDS011;37248;59.350;18.050;2022-10-31T14:54:38;10.70;;;5.40;;
51184;SDS011;37248;59.350;18.050;2022-10-31T14:57:05;13.63;;;5.28;;
51184;SDS011;37248;59.350;18.050;2022-10-31T14:59:33;9.15;;;5.07;;
51184;SDS011;37248;59.350;18.050;2022-10-31T15:02:14;10.55;;;5.03;;
51184;SDS011;37248;59.350;18.050;2022-10-31T15:04:40;23.80;;;6.10;;
51184;SDS011;37248;59.350;18.050;2022-10-31T15:09:35;14.03;;;5.13;;
51184;SDS011;37248;59.350;18.050;2022-10-31T15:12:01;11.98;;;5.20;;
51184;SDS011;37248;59.350;18.050;2022-10-31T15:14:39;12.23;;;4.67;;
51184;SDS011;37248;59.350;18.050;2022-10-31T15:17:05;9.73;;;4.87;;
51184;SDS011;37248;59.350;18.050;2022-10-31T15:19:30;12.27;;;5.00;;
51184;SDS011;37248;59.350;18.050;2022-10-31T15:21:57;12.25;;;4.93;;
51184;SDS011;37248;59.350;18.050;2022-10-31T15:24:24;10.82;;;4.68;;
51184;SDS011;37248;59.350;18.050;2022-10-31T15:26:52;7.32;;;4.68;;
51184;SDS011;37248;59.350;18.050;2022-10-31T15:29:20;14.20;;;5.53;;
51184;SDS011;37248;59.350;18.050;2022-10-31T15:31:49;13.43;;;5.72;;
51184;SDS011;37248;59.350;18.050;2022-10-31T15:34:16;14.37;;;4.83;;
51184;SDS011;37248;59.350;18.050;2022-10-31T15:36:44;14.05;;;5.78;;
51184;SDS011;37248;59.350;18.050;2022-10-31T15:39:12;12.82;;;5.55;;
51184;SDS011;37248;59.350;18.050;2022-10-31T15:41:51;13.30;;;5.17;;
51184;SDS011;37248;59.350;18.050;2022-10-31T15:44:20;12.85;;;4.80;;
51184;SDS011;37248;59.350;18.050;2022-10-31T15:47:03;11.73;;;4.97;;
51184;SDS011;37248;59.350;18.050;2022-10-31T15:51:54;13.23;;;5.00;;
51184;SDS011;37248;59.350;18.050;2022-10-31T15:54:19;14.37;;;5.40;;
51184;SDS011;37248;59.350;18.050;2022-10-31T15:56:45;13.10;;;6.10;;
51184;SDS011;37248;59.350;18.050;2022-10-31T15:59:23;12.20;;;5.20;;
51184;SDS011;37248;59.350;18.050;2022-10-31T16:02:00;11.48;;;5.47;;
51184;SDS011;37248;59.350;18.050;2022-10-31T16:04:25;12.38;;;5.60;;
51184;SDS011;37248;59.350;18.050;2022-10-31T16:06:58;10.43;;;5.23;;
51184;SDS011;37248;59.350;18.050;2022-10-31T16:09:24;9.60;;;4.70;;
51184;SDS011;37248;59.350;18.050;2022-10-31T16:11:50;9.87;;;4.93;;
51184;SDS011;37248;59.350;18.050;2022-10-31T16:14:16;13.50;;;5.50;;
51184;SDS011;37248;59.350;18.050;2022-10-31T16:16:46;13.30;;;5.55;;
51184;SDS011;37248;59.350;18.050;2022-10-31T16:19:16;11.57;;;5.35;;
51184;SDS011;37248;59.350;18.050;2022-10-31T16:21:42;11.27;;;5.30;;
51184;SDS011;37248;59.350;18.050;2022-10-31T16:24:16;12.27;;;5.50;;
51184;SDS011;37248;59.350;18.050;2022-10-31T16:26:46;12.37;;;5.60;;
51184;SDS011;37248;59.350;18.050;2022-10-31T16:29:23;13.40;;;5.88;;
51184;SDS011;37248;59.350;18.050;2022-10-31T16:31:49;11.52;;;5.65;;
51184;SDS011;37248;59.350;18.050;2022-10-31T16:34:17;12.17;;;5.40;;
51184;SDS011;37248;59.350;18.050;2022-10-31T16:36:44;15.38;;;5.82;;
51184;SDS011;37248;59.350;18.050;2022-10-31T16:39:09;17.10;;;6.18;;
51184;SDS011;37248;59.350;18.050;2022-10-31T16:41:35;16.27;;;6.07;;
51184;SDS011;37248;59.350;18.050;2022-10-31T16:44:03;18.27;;;5.80;;
51184;SDS011;37248;59.350;18.050;2022-10-31T16:46:29;18.80;;;6.53;;
51184;SDS011;37248;59.350;18.050;2022-10-31T16:48:54;10.97;;;5.67;;
51184;SDS011;37248;59.350;18.050;2022-10-31T16:51:20;20.88;;;6.78;;